EPPO/POZ METAR and TAF weather

Enter ICAO airport designator
Station Type Date Time Source
EPPO METAR 2021/04/13 08:00 UTC NOAA

EPPO 130800Z 32006KT 310V010 9999 FEW022 06/01 Q1027


Station Type Date Time Source
EPPO Decoded METAR 2021/04/13 08:00 UTC NOAA

Poznan, Poland (EPPO) 52-25N 016-50E 92M
Apr 13, 2021 - 04:00 AM EDT / 2021.04.13 0800 UTC
Wind: from the NW (320 degrees) at 7 MPH (6 KT) (direction variable):0
Visibility: greater than 7 mile(s):0
Sky conditions: mostly clear
Temperature: 42 F (6 C)
Dew Point: 33 F (1 C)
Relative Humidity: 70%
Pressure (altimeter): 30.33 in. Hg (1027 hPa)
ob: EPPO 130800Z 32006KT 310V010 9999 FEW022 06/01 Q1027
cycle: 8

Station Type Date Time Source
EPPO TAF 2021/04/13 06:38 UTC NOAA

TAF EPPO 130530Z 1306/1406 30006KT CAVOK
TEMPO 1309/1315 SCT020TCU

Example: see airport list